Accueil
METAR-TAF:

METAR-TAF

Aéroports :

Istres, France

Base aérienne 125 Istres-Le Tubé

latitude: 43-31N, longitude: 004-56E, altitude: 23 m

Observation

Le bulletin a été fait il y a 19 minutes, à 19:00 UTC
Vent 5 kt de est
Température 10°C
Humidité 82%
Pression 1019 hPa
Visibilité 10 km ou plus
pas de nuages en-dessous de 1500 mètres et pas de cumulonimbus.

METAR: LFMI 211900Z AUTO 10005KT CAVOK 10/07 Q1019 NOSIG

Heure: 20:19 (19:19 UTC)

Prévision

Le bulletin a été fait il y a 5 heures et 19 minutes, à 14:00 UTC
Prévision valable du 21 à 15 UTC au 22 à 15 UTC
Vent 3 kt de direction variable
Visibilité 10 km ou plus
pas de nuages en-dessous de 1500 mètres et pas de cumulonimbus.
Temporairement
du 22 à 12 UTC au 22 à 15 UTC
Vent 10 kt de sud-est

TAF: LFMI 211400Z 2115/2215 VRB03KT CAVOK TEMPO 2212/2215 14010KT

Observations et prévisions météorologiques de plus de 4000 aéroports (messages METAR et TAF).

Les stations disponibles sont représentées par des disques jaunes et rouges sur la carte.

Passer la souris dessus pour voir le nom de la station.

Cliquer dessus pour voir les observations et prévisions météorologiques.

Pour changer de carte: cliquez sur les boutons verts avec une croix noire pour zoomer, sur le bouton vert avec un tiret pour effectuer un zoom arrière, ou sur les flèches vertes pour les cartes adjacentes.


METAR-TAF: